createdAt,value
2022-10-10T07:03:34.593Z,3.10
2022-10-10T07:06:02.959Z,2.90
2022-10-10T07:08:30.145Z,3.37
2022-10-10T07:10:57.313Z,2.63
2022-10-10T07:13:24.614Z,2.93
2022-10-10T07:15:51.405Z,2.63
2022-10-10T07:18:19.026Z,3.23
2022-10-10T07:20:45.766Z,3.30
2022-10-10T07:23:12.500Z,3.10
2022-10-10T07:25:39.761Z,3.67
2022-10-10T07:28:07.543Z,2.57
2022-10-10T07:30:38.937Z,2.90
2022-10-10T07:33:06.103Z,2.87
2022-10-10T07:35:32.717Z,2.90
2022-10-10T07:38:00.250Z,3.10
2022-10-10T07:40:28.005Z,3.13
2022-10-10T07:42:54.682Z,3.13
2022-10-10T07:45:21.403Z,2.90
2022-10-10T07:47:50.817Z,2.93
2022-10-10T07:50:18.523Z,3.10
2022-10-10T07:52:45.414Z,2.77
2022-10-10T07:55:12.180Z,2.90
2022-10-10T07:57:40.084Z,3.00
2022-10-10T08:00:08.362Z,3.40
2022-10-10T08:02:42.702Z,3.07
2022-10-10T08:05:09.911Z,3.53
2022-10-10T08:07:36.740Z,3.20
2022-10-10T08:10:05.463Z,3.13
2022-10-10T08:12:34.562Z,3.53
2022-10-10T08:15:02.607Z,3.20
2022-10-10T08:17:30.396Z,2.83
2022-10-10T08:20:00.418Z,3.00
2022-10-10T08:22:27.736Z,3.27
2022-10-10T08:24:54.673Z,3.00
2022-10-10T08:27:21.956Z,3.20
2022-10-10T08:29:49.293Z,3.30
2022-10-10T08:32:17.609Z,3.23
2022-10-10T08:34:45.074Z,3.03
2022-10-10T08:37:15.382Z,3.40
2022-10-10T08:39:45.425Z,3.50
2022-10-10T08:42:17.780Z,3.10
2022-10-10T08:44:53.094Z,3.50
2022-10-10T08:47:23.909Z,3.17
2022-10-10T08:55:44.506Z,3.90
2022-10-10T08:58:34.207Z,3.40
2022-10-10T09:02:18.347Z,3.57
2022-10-10T09:18:54.221Z,2.93
2022-10-10T09:21:26.602Z,2.80
2022-10-10T09:23:57.562Z,2.90
2022-10-10T09:26:28.959Z,3.00
2022-10-10T09:29:21.461Z,3.27
2022-10-10T09:31:51.917Z,2.90
2022-10-10T09:34:21.437Z,3.10
2022-10-10T09:36:48.642Z,2.83
2022-10-10T09:39:25.543Z,3.20
2022-10-10T09:41:56.456Z,2.40
2022-10-10T09:44:23.427Z,3.10
2022-10-10T09:46:51.344Z,2.67
2022-10-10T09:49:18.980Z,3.00
2022-10-10T09:51:48.252Z,2.67
2022-10-10T09:54:16.007Z,3.20
2022-10-10T09:56:53.999Z,3.00
2022-10-10T09:59:41.511Z,3.00
2022-10-10T10:02:40.313Z,2.53
2022-10-10T10:07:58.655Z,3.00
2022-10-10T10:10:27.399Z,2.50
2022-10-10T10:12:55.317Z,2.90
2022-10-10T10:15:25.297Z,2.47
2022-10-10T10:18:13.861Z,2.60
2022-10-10T10:20:45.483Z,2.60
2022-10-10T10:23:26.523Z,2.90
2022-10-10T10:26:02.662Z,2.13
2022-10-10T10:28:29.773Z,2.50
2022-10-10T10:30:57.797Z,2.40
2022-10-10T10:33:45.947Z,2.93
2022-10-10T10:36:32.854Z,2.80
2022-10-10T10:41:40.524Z,2.67
2022-10-10T10:44:14.217Z,2.40
2022-10-10T10:47:00.041Z,2.70
2022-10-10T10:49:37.121Z,2.50
2022-10-10T10:52:23.073Z,2.50
2022-10-10T10:55:08.820Z,2.57
2022-10-10T10:58:04.134Z,2.23
2022-10-10T11:01:22.619Z,2.30
2022-10-10T11:05:20.535Z,2.33
2022-10-10T11:07:18.574Z,2.50
2022-10-10T11:09:51.047Z,2.63
2022-10-10T11:12:26.354Z,2.57
2022-10-10T11:15:22.605Z,2.10
2022-10-10T11:18:02.996Z,2.30
2022-10-10T11:20:52.464Z,2.50
2022-10-10T11:23:27.254Z,2.57
2022-10-10T11:25:58.212Z,2.30
2022-10-10T11:28:30.931Z,2.20
2022-10-10T11:31:02.917Z,2.50
2022-10-10T11:33:33.745Z,2.57
2022-10-10T11:36:04.000Z,2.60
2022-10-10T11:38:44.878Z,2.30
2022-10-10T11:41:30.076Z,2.33
2022-10-10T11:44:06.353Z,2.40
2022-10-10T11:46:39.851Z,2.43
2022-10-10T11:49:13.410Z,2.60
2022-10-10T11:52:21.351Z,2.20
2022-10-10T11:54:59.548Z,2.33
2022-10-10T11:57:29.709Z,2.40
2022-10-10T12:00:01.531Z,2.30
2022-10-10T12:02:34.665Z,2.03
2022-10-10T12:05:01.565Z,2.13
2022-10-10T12:07:36.422Z,2.20
2022-10-10T12:12:42.465Z,1.60
2022-10-10T12:15:10.805Z,2.53
2022-10-10T12:17:41.535Z,1.80
2022-10-10T12:20:31.364Z,2.07
2022-10-10T12:23:10.780Z,2.30
2022-10-10T12:25:44.900Z,2.33
2022-10-10T12:28:12.985Z,1.90
2022-10-10T12:30:58.273Z,2.13
2022-10-10T12:33:28.840Z,2.00
2022-10-10T12:35:57.237Z,2.10
2022-10-10T12:38:25.374Z,2.10
2022-10-10T12:40:58.779Z,1.97
2022-10-10T12:43:44.212Z,1.77
2022-10-10T12:46:15.872Z,1.97
2022-10-10T12:48:43.178Z,2.00
2022-10-10T12:51:31.797Z,1.93
2022-10-10T12:54:00.890Z,2.47
2022-10-10T12:56:38.280Z,2.37
2022-10-10T12:59:07.263Z,2.50
2022-10-10T13:01:41.211Z,2.27
2022-10-10T13:04:10.693Z,2.10
2022-10-10T13:06:43.216Z,2.50
2022-10-10T13:09:22.162Z,2.30
2022-10-10T13:11:51.223Z,2.47
2022-10-10T13:14:19.428Z,2.30
2022-10-10T13:16:46.360Z,2.20
2022-10-10T13:19:24.972Z,2.50
2022-10-10T13:21:54.913Z,2.43
2022-10-10T13:24:29.484Z,2.83
2022-10-10T13:26:57.082Z,2.43
2022-10-10T13:29:24.268Z,2.70
2022-10-10T13:31:57.521Z,2.23
2022-10-10T13:38:09.701Z,2.43
2022-10-10T13:40:36.821Z,2.77
2022-10-10T13:43:04.491Z,2.70
2022-10-10T13:45:40.264Z,2.90
2022-10-10T13:48:12.142Z,2.47
2022-10-10T13:50:43.214Z,2.63
2022-10-10T13:53:23.219Z,3.07
2022-10-10T13:55:51.282Z,2.73
2022-10-10T14:01:29.630Z,2.63
2022-10-10T14:04:19.889Z,2.57
2022-10-10T14:06:56.663Z,3.07
2022-10-10T14:09:37.790Z,2.90
2022-10-10T14:12:06.204Z,2.83
2022-10-10T14:14:35.481Z,2.93
2022-10-10T14:17:05.810Z,3.10
2022-10-10T14:19:33.545Z,2.60
2022-10-10T14:22:01.655Z,2.87
2022-10-10T14:24:28.708Z,2.70
2022-10-10T14:26:56.714Z,2.53
2022-10-10T14:29:24.919Z,2.80
2022-10-10T14:31:51.936Z,2.67
2022-10-10T14:37:16.781Z,2.70
2022-10-10T14:39:43.857Z,3.07
2022-10-10T14:42:12.847Z,3.10
2022-10-10T14:44:40.730Z,3.37
2022-10-10T14:47:10.019Z,3.33
2022-10-10T14:49:37.108Z,2.63
2022-10-10T14:52:05.413Z,3.27
2022-10-10T14:54:32.657Z,3.73
2022-10-10T14:57:09.251Z,2.80
2022-10-10T14:59:47.931Z,2.63
2022-10-10T15:02:24.571Z,2.80
2022-10-10T15:04:53.209Z,3.40
2022-10-10T15:07:21.748Z,2.90
2022-10-10T15:10:31.605Z,2.87
2022-10-10T15:12:39.226Z,3.43
2022-10-10T15:15:36.450Z,2.57
2022-10-10T15:18:03.756Z,2.80
2022-10-10T15:20:33.340Z,3.00
2022-10-10T15:23:05.183Z,2.30
2022-10-10T15:25:33.983Z,2.70
2022-10-10T15:28:03.929Z,2.70
2022-10-10T15:30:31.498Z,3.07
2022-10-10T15:32:58.772Z,2.90
2022-10-10T15:35:25.962Z,2.93
2022-10-10T15:37:54.489Z,3.10
2022-10-10T15:40:25.923Z,3.23
2022-10-10T15:42:55.252Z,2.90
2022-10-10T15:45:50.955Z,3.20
2022-10-10T15:50:58.471Z,3.03
2022-10-10T15:53:25.743Z,3.03
2022-10-10T15:58:46.916Z,3.43
2022-10-10T16:01:18.756Z,3.57
2022-10-10T16:03:47.848Z,3.30
2022-10-10T16:06:15.600Z,3.10
2022-10-10T16:08:52.395Z,3.17
2022-10-10T16:11:24.339Z,2.97
2022-10-10T16:13:54.634Z,3.17
2022-10-10T16:16:22.442Z,3.17
2022-10-10T16:18:52.469Z,2.97
2022-10-10T16:21:21.442Z,2.90
2022-10-10T16:23:48.714Z,2.57
2022-10-10T16:26:20.478Z,2.77
2022-10-10T16:28:47.888Z,2.77
2022-10-10T16:31:17.071Z,2.73
2022-10-10T16:33:44.987Z,2.60
2022-10-10T16:36:14.493Z,2.60
2022-10-10T16:38:42.051Z,2.33
2022-10-10T16:41:35.282Z,2.63
2022-10-10T16:44:03.478Z,2.80
2022-10-10T16:46:31.650Z,2.93
2022-10-10T16:48:59.703Z,2.70
2022-10-10T16:51:28.698Z,2.67
2022-10-10T16:53:56.620Z,2.63
2022-10-10T16:56:23.540Z,3.03
2022-10-10T16:58:51.268Z,3.17
2022-10-10T17:01:19.993Z,3.40
2022-10-10T17:03:48.325Z,2.83
2022-10-10T17:09:12.461Z,3.30
2022-10-10T17:14:17.613Z,2.97
2022-10-10T17:17:10.450Z,2.77
2022-10-10T17:19:33.208Z,3.20
2022-10-10T19:24:49.233Z,2.20
2022-10-10T19:27:17.285Z,2.40
2022-10-10T19:29:45.521Z,2.70
2022-10-10T19:32:12.347Z,3.07
2022-10-10T19:34:42.333Z,2.30
2022-10-10T19:37:09.478Z,3.10
2022-10-10T19:39:36.675Z,2.37
2022-10-10T19:42:04.472Z,2.10
2022-10-10T19:44:31.411Z,1.77
2022-10-10T19:47:02.146Z,2.10
2022-10-10T19:49:29.328Z,2.23
2022-10-10T19:51:56.755Z,1.50
2022-10-10T19:54:28.617Z,1.80
2022-10-10T19:56:58.006Z,1.70
2022-10-10T19:59:24.757Z,1.90
2022-10-10T20:01:52.846Z,1.63
2022-10-10T20:04:21.039Z,2.03
2022-10-10T20:06:51.557Z,1.93
2022-10-10T20:09:18.825Z,1.30
2022-10-10T20:11:47.154Z,1.87
2022-10-10T20:14:16.563Z,2.07
2022-10-10T20:16:43.630Z,2.33
2022-10-10T20:19:11.383Z,2.10
2022-10-10T20:21:39.419Z,1.73
2022-10-10T20:24:13.328Z,1.70
2022-10-10T20:26:42.892Z,2.10
2022-10-10T20:29:10.241Z,2.20
2022-10-10T20:31:37.965Z,1.57
2022-10-10T20:34:07.210Z,1.57
2022-10-10T20:36:36.847Z,1.80
2022-10-10T20:39:05.338Z,2.20
2022-10-10T20:41:32.901Z,2.13
2022-10-10T20:58:30.716Z,2.07
2022-10-10T21:01:09.672Z,1.90
2022-10-10T21:03:38.022Z,2.63
2022-10-10T21:06:09.964Z,1.83
2022-10-10T21:08:37.986Z,1.60
2022-10-10T21:11:07.969Z,1.80
2022-10-10T21:13:36.436Z,1.70
2022-10-10T21:16:07.100Z,2.10
2022-10-10T21:18:37.386Z,2.10
2022-10-10T21:21:05.775Z,1.87
2022-10-10T21:23:39.291Z,1.90
2022-10-10T21:26:12.524Z,2.03
2022-10-10T21:28:43.025Z,2.00
2022-10-10T21:31:17.733Z,1.93
2022-10-10T21:33:46.019Z,1.97
2022-10-10T21:36:13.585Z,2.00
2022-10-10T21:38:41.338Z,2.13
2022-10-10T21:41:26.038Z,1.77
2022-10-10T21:43:58.989Z,1.97
2022-10-10T21:46:29.814Z,1.90
2022-10-10T21:49:02.783Z,2.40
2022-10-10T21:51:31.314Z,1.80
2022-10-10T21:53:59.216Z,1.80
2022-10-10T21:56:29.206Z,2.10
2022-10-10T21:59:01.204Z,2.30
2022-10-10T22:01:29.893Z,2.37
2022-10-10T22:03:56.813Z,1.87
2022-10-10T22:06:25.078Z,2.43
2022-10-10T22:08:52.712Z,1.90
2022-10-10T22:11:21.588Z,2.37
2022-10-10T22:13:48.841Z,2.27
2022-10-10T22:16:15.829Z,2.47
2022-10-10T22:18:43.915Z,1.77
2022-10-10T22:21:12.622Z,2.43
2022-10-10T22:23:40.615Z,2.33
2022-10-10T22:26:09.001Z,2.20
2022-10-10T22:28:36.711Z,2.20
2022-10-10T23:07:12.493Z,1.83
2022-10-10T23:09:39.641Z,1.90
2022-10-10T23:12:06.585Z,2.07
2022-10-10T23:17:11.974Z,2.33
2022-10-10T23:19:39.951Z,2.43
2022-10-10T23:22:06.720Z,2.00
2022-10-10T23:24:33.394Z,2.37
2022-10-10T23:27:00.442Z,1.70
2022-10-10T23:29:27.102Z,2.20
2022-10-10T23:31:54.120Z,2.17
2022-10-10T23:34:21.554Z,2.10
2022-10-10T23:36:51.242Z,2.10
2022-10-10T23:39:18.051Z,2.00
2022-10-10T23:41:44.815Z,2.13
2022-10-10T23:44:12.205Z,2.20
2022-10-10T23:46:38.882Z,1.97
2022-10-10T23:49:06.630Z,2.20
2022-10-10T23:51:35.745Z,2.20
2022-10-10T23:54:02.767Z,2.30
2022-10-10T23:56:31.849Z,1.63
2022-10-10T23:58:58.602Z,2.17
